createdAt,value
2018-12-12T00:01:24.476Z,13.80
2018-12-12T00:03:51.904Z,8.03
2018-12-12T00:06:19.394Z,11.03
2018-12-12T00:08:47.664Z,12.20
2018-12-12T00:11:15.111Z,6.63
2018-12-12T00:13:42.572Z,8.00
2018-12-12T00:16:10.008Z,9.87
2018-12-12T00:18:37.500Z,13.37
2018-12-12T00:21:05.064Z,14.83
2018-12-12T00:23:32.528Z,15.03
2018-12-12T00:25:59.968Z,10.33
2018-12-12T00:28:27.443Z,9.50
2018-12-12T00:30:54.905Z,13.43
2018-12-12T00:33:22.367Z,11.87
2018-12-12T00:35:49.828Z,10.07
2018-12-12T00:38:17.287Z,17.00
2018-12-12T00:40:44.722Z,8.10
2018-12-12T00:43:12.184Z,6.80
2018-12-12T00:45:39.678Z,8.30
2018-12-12T00:48:07.236Z,9.10
2018-12-12T00:50:34.696Z,9.50
2018-12-12T00:53:02.160Z,10.93
2018-12-12T00:55:29.824Z,11.83
2018-12-12T00:57:57.359Z,7.10
2018-12-12T01:00:24.795Z,6.40
2018-12-12T01:02:52.321Z,9.50
2018-12-12T01:05:19.771Z,12.83
2018-12-12T01:07:47.208Z,15.03
2018-12-12T01:10:14.700Z,9.43
2018-12-12T01:12:42.156Z,9.63
2018-12-12T01:15:09.614Z,10.10
2018-12-12T01:17:37.080Z,10.10
2018-12-12T01:20:05.380Z,14.77
2018-12-12T01:22:32.828Z,11.33
2018-12-12T01:25:00.248Z,9.03
2018-12-12T01:27:27.747Z,12.77
2018-12-12T01:29:55.207Z,11.63
2018-12-12T01:32:22.641Z,12.13
2018-12-12T01:34:50.068Z,9.57
2018-12-12T01:37:17.731Z,10.83
2018-12-12T01:39:45.256Z,19.57
2018-12-12T01:42:12.719Z,21.33
2018-12-12T01:44:40.184Z,16.37
2018-12-12T01:47:07.644Z,18.53
2018-12-12T01:49:35.104Z,19.20
2018-12-12T01:52:02.567Z,16.43
2018-12-12T01:54:30.033Z,15.10
2018-12-12T01:56:57.487Z,14.87
2018-12-12T01:59:24.957Z,17.33
2018-12-12T02:01:52.412Z,18.67
2018-12-12T02:04:19.848Z,19.37
2018-12-12T02:06:47.272Z,16.67
2018-12-12T02:09:14.796Z,17.03
2018-12-12T02:11:42.360Z,17.97
2018-12-12T02:14:09.849Z,17.27
2018-12-12T02:16:37.384Z,19.90
2018-12-12T02:19:04.888Z,14.30
2018-12-12T02:21:32.417Z,15.27
2018-12-12T02:23:59.877Z,17.80
2018-12-12T02:26:27.338Z,14.90
2018-12-12T02:28:54.800Z,15.23
2018-12-12T02:31:22.262Z,18.87
2018-12-12T02:33:49.825Z,13.70
2018-12-12T02:36:17.254Z,15.80
2018-12-12T02:38:44.816Z,16.60
2018-12-12T02:41:12.308Z,12.13
2018-12-12T02:43:39.873Z,20.07
2018-12-12T02:46:07.297Z,16.87
2018-12-12T02:48:34.792Z,15.60
2018-12-12T02:51:02.260Z,15.30
2018-12-12T02:53:29.711Z,11.93
2018-12-12T02:55:57.180Z,17.43
2018-12-12T02:58:24.740Z,16.80
2018-12-12T03:00:52.212Z,13.67
2018-12-12T03:03:19.673Z,17.10
2018-12-12T03:05:47.125Z,15.90
2018-12-12T03:08:14.587Z,13.70
2018-12-12T03:10:42.053Z,13.33
2018-12-12T03:13:09.517Z,14.33
2018-12-12T03:15:36.972Z,16.23
2018-12-12T03:18:04.547Z,19.30
2018-12-12T03:20:32.002Z,13.87
2018-12-12T03:23:00.276Z,16.60
2018-12-12T03:25:27.742Z,14.70
2018-12-12T03:27:55.205Z,16.10
2018-12-12T03:30:22.661Z,16.90
2018-12-12T03:32:50.137Z,13.60
2018-12-12T03:35:17.694Z,15.50
2018-12-12T03:37:45.117Z,16.50
2018-12-12T03:40:12.949Z,15.83
2018-12-12T03:42:40.717Z,14.13
2018-12-12T03:45:08.255Z,14.20
2018-12-12T03:47:35.703Z,18.90
2018-12-12T03:50:03.173Z,18.20
2018-12-12T03:52:30.640Z,20.30
2018-12-12T03:54:58.097Z,17.10
2018-12-12T03:57:25.552Z,16.70
2018-12-12T03:59:52.987Z,16.43
2018-12-12T04:02:20.484Z,18.53
2018-12-12T04:04:47.915Z,20.00
2018-12-12T04:07:15.352Z,16.80
2018-12-12T04:09:42.961Z,15.70
2018-12-12T04:12:10.432Z,16.40
2018-12-12T04:14:38.003Z,18.23
2018-12-12T04:17:05.552Z,18.93
2018-12-12T04:19:33.016Z,17.73
2018-12-12T04:22:00.686Z,16.30
2018-12-12T04:24:28.420Z,15.57
2018-12-12T04:26:55.908Z,17.87
2018-12-12T04:29:23.337Z,19.90
2018-12-12T04:31:50.832Z,13.03
2018-12-12T04:34:18.295Z,14.60
2018-12-12T04:36:45.723Z,16.83
2018-12-12T04:39:13.215Z,13.90
2018-12-12T04:41:40.883Z,15.43
2018-12-12T04:44:08.321Z,21.27
2018-12-12T04:46:35.774Z,16.90
2018-12-12T04:49:03.224Z,15.23
2018-12-12T04:51:30.735Z,20.50
2018-12-12T04:53:58.191Z,13.50
2018-12-12T04:56:25.670Z,13.77
2018-12-12T04:58:54.124Z,17.30
2018-12-12T05:01:21.592Z,17.90
2018-12-12T05:03:49.031Z,14.90
2018-12-12T05:06:16.524Z,14.23
2018-12-12T05:08:43.959Z,13.80
2018-12-12T05:11:11.432Z,18.77
2018-12-12T05:13:39.012Z,19.80
2018-12-12T05:16:06.468Z,12.50
2018-12-12T05:18:33.928Z,19.43
2018-12-12T05:21:01.390Z,18.37
2018-12-12T05:23:28.817Z,16.70
2018-12-12T05:25:56.319Z,21.10
2018-12-12T05:28:23.783Z,18.03
2018-12-12T05:30:51.254Z,19.33
2018-12-12T05:33:18.799Z,17.93
2018-12-12T05:35:46.248Z,18.73
2018-12-12T05:38:13.719Z,17.40
2018-12-12T05:40:41.388Z,15.73
2018-12-12T05:43:08.952Z,14.90
2018-12-12T05:45:36.664Z,16.87
2018-12-12T05:48:04.183Z,17.33
2018-12-12T05:50:31.648Z,22.53
2018-12-12T05:52:59.112Z,21.00
2018-12-12T05:55:26.577Z,20.67
2018-12-12T05:57:54.031Z,22.23
2018-12-12T06:00:21.503Z,18.77
2018-12-12T06:02:48.951Z,18.20
2018-12-12T06:05:16.520Z,22.23
2018-12-12T06:07:44.080Z,18.63
2018-12-12T06:10:12.384Z,21.00
2018-12-12T06:12:39.804Z,28.43
2018-12-12T06:15:07.894Z,20.20
2018-12-12T06:17:36.602Z,20.27
2018-12-12T06:20:05.971Z,14.57
2018-12-12T06:22:37.663Z,20.13
2018-12-12T06:25:03.069Z,17.17
2018-12-12T06:27:30.540Z,24.60
2018-12-12T06:29:58.091Z,18.53
2018-12-12T06:32:25.579Z,21.23
2018-12-12T06:34:53.013Z,17.47
2018-12-12T06:37:20.471Z,27.80
2018-12-12T06:39:47.940Z,26.47
2018-12-12T06:42:15.400Z,22.13
2018-12-12T06:44:42.868Z,19.00
2018-12-12T06:47:10.328Z,22.23
2018-12-12T06:49:37.786Z,17.00
2018-12-12T06:52:05.245Z,21.23
2018-12-12T06:54:32.699Z,18.43
2018-12-12T06:57:00.142Z,23.27
2018-12-12T06:59:27.697Z,21.73
2018-12-12T07:01:55.153Z,19.63
2018-12-12T07:04:22.579Z,23.33
2018-12-12T07:06:50.117Z,22.10
2018-12-12T07:09:17.576Z,27.70
2018-12-12T07:11:45.140Z,19.23
2018-12-12T07:14:12.599Z,26.07
2018-12-12T07:16:40.069Z,26.50
2018-12-12T07:19:07.500Z,18.33
2018-12-12T07:21:34.979Z,17.00
2018-12-12T07:24:02.468Z,19.77
2018-12-12T07:26:29.900Z,19.10
2018-12-12T07:28:57.374Z,18.57
2018-12-12T07:31:24.828Z,25.20
2018-12-12T07:33:52.299Z,20.40
2018-12-12T07:36:19.851Z,18.17
2018-12-12T07:38:47.294Z,19.20
2018-12-12T07:41:14.715Z,22.23
2018-12-12T07:43:42.244Z,18.30
2018-12-12T07:46:09.804Z,20.13
2018-12-12T07:48:37.268Z,23.10
2018-12-12T07:51:04.833Z,22.77
2018-12-12T07:53:32.461Z,25.13
2018-12-12T07:55:59.924Z,24.43
2018-12-12T07:58:27.420Z,21.87
2018-12-12T08:00:55.083Z,20.47
2018-12-12T08:03:22.523Z,17.13
2018-12-12T08:05:50.016Z,23.30
2018-12-12T08:08:17.484Z,24.93
2018-12-12T08:10:45.031Z,21.30
2018-12-12T08:13:12.492Z,23.10
2018-12-12T08:15:39.957Z,20.73
2018-12-12T08:18:07.520Z,22.97
2018-12-12T08:20:34.980Z,23.10
2018-12-12T08:23:02.648Z,19.47
2018-12-12T08:25:30.415Z,23.40
2018-12-12T08:27:57.877Z,22.50
2018-12-12T08:30:25.450Z,19.07
2018-12-12T08:32:52.970Z,23.40
2018-12-12T08:35:20.477Z,21.70
2018-12-12T08:37:47.932Z,19.60
2018-12-12T08:40:15.488Z,22.27
2018-12-12T08:42:42.985Z,18.93
2018-12-12T08:45:10.507Z,21.10
2018-12-12T08:47:38.079Z,23.27
2018-12-12T08:50:07.180Z,23.83
2018-12-12T08:52:34.636Z,24.23
2018-12-12T08:55:02.272Z,18.63
2018-12-12T08:57:29.724Z,18.87
2018-12-12T08:59:57.232Z,25.83
2018-12-12T09:02:24.667Z,20.00
2018-12-12T09:04:52.137Z,21.97
2018-12-12T09:07:19.580Z,18.00
2018-12-12T09:09:47.068Z,18.87
2018-12-12T09:12:14.532Z,23.50
2018-12-12T09:14:42.100Z,17.90
2018-12-12T09:17:10.016Z,33.67
2018-12-12T09:19:37.736Z,26.53
2018-12-12T09:22:05.170Z,19.13
2018-12-12T09:24:32.651Z,21.23
2018-12-12T09:27:00.115Z,27.10
2018-12-12T09:29:27.579Z,19.77
2018-12-12T09:31:55.120Z,20.70
2018-12-12T09:34:22.560Z,25.10
2018-12-12T09:36:50.068Z,19.60
2018-12-12T09:39:17.540Z,21.40
2018-12-12T09:41:44.970Z,20.83
2018-12-12T09:44:12.443Z,19.80
2018-12-12T09:46:39.871Z,20.03
2018-12-12T09:49:07.391Z,18.57
2018-12-12T09:51:34.837Z,25.90
2018-12-12T09:54:02.300Z,18.33
2018-12-12T09:56:29.764Z,21.77
2018-12-12T09:58:57.222Z,21.23
2018-12-12T10:01:24.693Z,23.03
2018-12-12T10:03:52.131Z,22.20
2018-12-12T10:06:19.677Z,23.23
2018-12-12T10:08:47.228Z,22.27
2018-12-12T10:11:14.736Z,18.80
2018-12-12T10:13:42.196Z,20.10
2018-12-12T10:16:09.642Z,20.40
2018-12-12T10:18:37.122Z,19.50
2018-12-12T10:21:04.550Z,22.93
2018-12-12T10:23:32.045Z,22.63
2018-12-12T10:25:59.480Z,24.27
2018-12-12T10:28:26.911Z,22.53
2018-12-12T10:30:54.428Z,18.80
2018-12-12T10:33:21.890Z,22.00
2018-12-12T10:35:49.416Z,21.67
2018-12-12T10:38:16.835Z,17.60
2018-12-12T10:40:44.263Z,22.83
2018-12-12T10:43:11.761Z,18.77
2018-12-12T10:45:39.193Z,17.90
2018-12-12T10:48:08.186Z,20.33
2018-12-12T10:50:35.976Z,17.97
2018-12-12T10:53:03.537Z,20.43
2018-12-12T10:55:31.054Z,23.43
2018-12-12T10:57:58.546Z,22.37
2018-12-12T11:00:26.020Z,15.70
2018-12-12T11:02:59.275Z,18.13
2018-12-12T11:05:26.978Z,19.83
2018-12-12T11:07:54.408Z,17.97
2018-12-12T11:10:21.996Z,20.83
2018-12-12T11:12:49.559Z,17.57
2018-12-12T11:15:17.032Z,16.27
2018-12-12T11:17:44.504Z,20.10
2018-12-12T11:20:12.012Z,19.10
2018-12-12T11:22:39.443Z,18.37
2018-12-12T11:25:06.970Z,18.30
2018-12-12T11:27:34.432Z,20.53
2018-12-12T11:30:01.976Z,19.43
2018-12-12T11:32:29.483Z,15.23
2018-12-12T11:34:57.019Z,18.47
2018-12-12T11:37:24.488Z,16.03
2018-12-12T11:39:51.917Z,15.03
2018-12-12T11:42:19.416Z,17.67
2018-12-12T11:44:46.864Z,18.90
2018-12-12T11:47:14.324Z,14.87
2018-12-12T11:49:41.800Z,19.03
2018-12-12T11:52:09.284Z,20.17
2018-12-12T11:54:36.755Z,15.97
2018-12-12T11:57:04.315Z,15.83
2018-12-12T11:59:31.842Z,18.17
2018-12-12T12:01:59.296Z,18.63
2018-12-12T12:04:26.759Z,18.33
2018-12-12T12:06:54.230Z,19.90
2018-12-12T12:09:21.762Z,15.30
2018-12-12T12:11:49.243Z,15.50
2018-12-12T12:14:16.708Z,16.40
2018-12-12T12:16:44.190Z,17.03
2018-12-12T12:19:11.704Z,18.33
2018-12-12T12:21:39.199Z,17.57
2018-12-12T12:24:06.664Z,15.77
2018-12-12T12:26:34.179Z,17.93
2018-12-12T12:29:01.840Z,17.63
2018-12-12T12:31:29.312Z,20.80
2018-12-12T12:34:03.120Z,15.63
2018-12-12T12:36:26.237Z,16.27
2018-12-12T12:38:53.681Z,18.07
2018-12-12T12:41:21.146Z,21.27
2018-12-12T12:43:48.689Z,21.60
2018-12-12T12:46:16.158Z,19.23
2018-12-12T12:48:43.632Z,18.20
2018-12-12T12:51:11.065Z,20.70
2018-12-12T12:53:38.547Z,15.47
2018-12-12T12:56:06.007Z,17.97
2018-12-12T12:58:33.473Z,20.80
2018-12-12T13:01:00.911Z,15.17
2018-12-12T13:03:28.340Z,18.87
2018-12-12T13:05:55.926Z,12.97
2018-12-12T13:08:23.336Z,15.30
2018-12-12T13:10:50.769Z,18.13
2018-12-12T13:13:18.595Z,13.93
2018-12-12T13:15:46.692Z,14.10
2018-12-12T13:18:14.332Z,12.50
2018-12-12T13:20:41.852Z,15.20
2018-12-12T13:23:09.325Z,17.00
2018-12-12T13:25:36.888Z,14.77
2018-12-12T13:28:04.336Z,15.50
2018-12-12T13:30:31.771Z,22.03
2018-12-12T13:32:59.272Z,14.50
2018-12-12T13:35:26.719Z,14.20
2018-12-12T13:37:54.188Z,16.67
2018-12-12T13:40:21.656Z,15.63
2018-12-12T13:42:49.112Z,11.63
2018-12-12T13:45:16.572Z,14.30
2018-12-12T13:47:44.033Z,16.73
2018-12-12T13:50:11.496Z,14.83
2018-12-12T13:52:39.063Z,18.70
2018-12-12T13:55:06.628Z,15.20
2018-12-12T13:57:34.182Z,14.50
2018-12-12T14:00:01.668Z,13.70
2018-12-12T14:02:29.308Z,12.50
2018-12-12T14:04:56.777Z,17.43
2018-12-12T14:07:24.276Z,14.97
2018-12-12T14:09:51.755Z,14.57
2018-12-12T14:12:19.210Z,16.40
2018-12-12T14:14:46.728Z,15.70
2018-12-12T14:17:14.181Z,15.10
2018-12-12T14:19:41.644Z,16.37
2018-12-12T14:22:09.106Z,16.27
2018-12-12T14:24:36.677Z,13.80
2018-12-12T14:27:04.148Z,16.10
2018-12-12T14:29:31.696Z,14.70
2018-12-12T14:31:59.172Z,13.70
2018-12-12T14:34:29.302Z,17.43
2018-12-12T14:36:57.049Z,14.40
2018-12-12T14:39:24.512Z,11.80
2018-12-12T14:41:51.984Z,13.63
2018-12-12T14:44:19.533Z,14.43
2018-12-12T14:46:46.996Z,14.63
2018-12-12T14:49:14.564Z,12.80
2018-12-12T14:51:41.996Z,14.20
2018-12-12T14:54:09.420Z,17.47
2018-12-12T14:56:36.943Z,14.17
2018-12-12T14:59:04.399Z,17.10
2018-12-12T15:01:31.836Z,15.47
2018-12-12T15:03:59.272Z,16.40
2018-12-12T15:06:26.704Z,14.53
2018-12-12T15:08:54.218Z,15.97
2018-12-12T15:11:21.713Z,15.07
2018-12-12T15:13:49.136Z,15.00
2018-12-12T15:16:16.572Z,15.67
2018-12-12T15:18:44.100Z,17.60
2018-12-12T15:21:11.560Z,15.33
2018-12-12T15:23:39.021Z,15.13
2018-12-12T15:26:06.459Z,22.17
2018-12-12T15:28:33.892Z,18.30
2018-12-12T15:31:01.320Z,17.67
2018-12-12T15:33:28.772Z,15.63
2018-12-12T15:35:56.253Z,15.33
2018-12-12T15:38:23.680Z,16.70
2018-12-12T15:40:51.148Z,17.53
2018-12-12T15:43:18.615Z,18.03
2018-12-12T15:45:46.080Z,25.43
2018-12-12T15:48:13.552Z,16.07
2018-12-12T15:50:41.004Z,20.90
2018-12-12T15:53:08.555Z,21.10
2018-12-12T15:55:36.032Z,16.30
2018-12-12T15:58:03.589Z,15.90
2018-12-12T16:00:31.092Z,18.87
2018-12-12T16:02:58.764Z,15.23
2018-12-12T16:05:26.280Z,18.17
2018-12-12T16:07:53.752Z,19.63
2018-12-12T16:10:21.195Z,18.60
2018-12-12T16:12:48.666Z,20.00
2018-12-12T16:15:16.119Z,18.23
2018-12-12T16:17:43.583Z,16.50
2018-12-12T16:20:11.097Z,19.90
2018-12-12T16:22:38.614Z,19.90
2018-12-12T16:25:06.480Z,15.80
2018-12-12T16:27:33.938Z,18.50
2018-12-12T16:30:01.405Z,18.20
2018-12-12T16:32:28.860Z,17.73
2018-12-12T16:34:56.324Z,18.20
2018-12-12T16:37:23.848Z,14.93
2018-12-12T16:39:51.363Z,17.33
2018-12-12T16:42:18.852Z,17.33
2018-12-12T16:44:46.383Z,19.87
2018-12-12T16:47:13.833Z,18.53
2018-12-12T16:49:41.307Z,21.27
2018-12-12T16:52:08.760Z,22.00
2018-12-12T16:54:36.192Z,18.50
2018-12-12T16:57:03.955Z,18.87
2018-12-12T16:59:31.384Z,21.70
2018-12-12T17:01:58.826Z,21.07
2018-12-12T17:04:26.256Z,17.20
2018-12-12T17:06:53.801Z,18.63
2018-12-12T17:09:21.351Z,17.73
2018-12-12T17:11:48.862Z,30.87
2018-12-12T17:14:16.292Z,26.63
2018-12-12T17:16:43.786Z,19.80
2018-12-12T17:19:11.258Z,21.20
2018-12-12T17:21:38.729Z,24.60
2018-12-12T17:24:06.276Z,20.63
2018-12-12T17:26:33.703Z,21.07
2018-12-12T17:29:01.145Z,23.93
2018-12-12T17:31:28.632Z,22.03
2018-12-12T17:33:56.148Z,22.70
2018-12-12T17:36:23.580Z,22.30
2018-12-12T17:38:51.044Z,21.87
2018-12-12T17:41:18.499Z,23.10
2018-12-12T17:43:45.940Z,25.60
2018-12-12T17:46:13.448Z,21.70
2018-12-12T17:48:40.989Z,24.03
2018-12-12T17:51:08.516Z,25.73
2018-12-12T17:53:35.988Z,24.63
2018-12-12T17:56:03.550Z,22.23
2018-12-12T17:58:31.036Z,27.70
2018-12-12T18:00:58.504Z,25.50
2018-12-12T18:03:25.956Z,24.90
2018-12-12T18:05:53.424Z,28.50
2018-12-12T18:08:20.880Z,29.37
2018-12-12T18:10:48.444Z,22.73
2018-12-12T18:13:15.908Z,27.23
2018-12-12T18:15:43.344Z,22.83
2018-12-12T18:18:10.829Z,20.10
2018-12-12T18:20:38.393Z,23.67
2018-12-12T18:23:05.856Z,23.23
2018-12-12T18:25:33.320Z,24.60
2018-12-12T18:28:01.096Z,25.97
2018-12-12T18:30:28.548Z,25.60
2018-12-12T18:32:56.514Z,24.90
2018-12-12T18:35:24.088Z,26.00
2018-12-12T18:37:51.548Z,31.27
2018-12-12T18:40:19.003Z,29.83
2018-12-12T18:42:46.480Z,24.50
2018-12-12T18:45:14.045Z,23.60
2018-12-12T18:47:41.606Z,28.30
2018-12-12T18:50:09.370Z,25.47
2018-12-12T18:52:36.925Z,24.63
2018-12-12T18:55:04.529Z,24.60
2018-12-12T18:57:32.055Z,24.70
2018-12-12T18:59:59.519Z,25.30
2018-12-12T19:02:27.079Z,22.63
2018-12-12T19:04:54.539Z,22.20
2018-12-12T19:07:22.012Z,22.03
2018-12-12T19:09:49.463Z,22.13
2018-12-12T19:12:16.896Z,23.13
2018-12-12T19:14:49.940Z,23.63
2018-12-12T19:17:17.364Z,23.37
2018-12-12T19:19:44.840Z,21.10
2018-12-12T19:22:12.405Z,22.23
2018-12-12T19:24:39.845Z,25.40
2018-12-12T19:27:07.330Z,25.07
2018-12-12T19:29:34.796Z,19.77
2018-12-12T19:32:02.228Z,23.83
2018-12-12T19:34:29.664Z,20.80
2018-12-12T19:36:57.091Z,21.20
2018-12-12T19:39:25.268Z,20.80
2018-12-12T19:41:52.908Z,19.07
2018-12-12T19:44:20.476Z,17.40
2018-12-12T19:46:47.936Z,20.17
2018-12-12T19:49:15.507Z,18.57
2018-12-12T19:51:43.068Z,17.37
2018-12-12T19:54:10.528Z,21.90
2018-12-12T19:56:37.957Z,19.00
2018-12-12T19:59:05.400Z,19.37
2018-12-12T20:01:32.917Z,20.23
2018-12-12T20:04:00.365Z,21.13
2018-12-12T20:06:27.788Z,20.90
2018-12-12T20:08:55.364Z,23.60
2018-12-12T20:11:22.868Z,21.27
2018-12-12T20:13:50.316Z,24.10
2018-12-12T20:16:17.789Z,23.20
2018-12-12T20:18:45.244Z,23.40
2018-12-12T20:21:12.805Z,19.00
2018-12-12T20:23:40.240Z,27.77
2018-12-12T20:26:07.733Z,21.27
2018-12-12T20:28:35.192Z,23.40
2018-12-12T20:31:02.672Z,21.70
2018-12-12T20:33:30.113Z,21.80
2018-12-12T20:35:57.656Z,19.77
2018-12-12T20:38:25.136Z,19.80
2018-12-12T20:40:52.700Z,22.53
2018-12-12T20:43:20.164Z,19.87
2018-12-12T20:45:47.635Z,20.13
2018-12-12T20:48:15.142Z,23.53
2018-12-12T20:50:42.584Z,22.37
2018-12-12T20:53:10.012Z,20.60
2018-12-12T20:55:37.604Z,23.07
2018-12-12T20:58:05.208Z,21.20
2018-12-12T21:00:32.720Z,19.50
2018-12-12T21:03:00.172Z,24.43
2018-12-12T21:05:27.753Z,22.50
2018-12-12T21:07:55.291Z,21.07
2018-12-12T21:10:22.856Z,25.37
2018-12-12T21:12:50.334Z,24.93
2018-12-12T21:15:17.886Z,27.33
2018-12-12T21:17:45.344Z,22.77
2018-12-12T21:20:12.779Z,23.20
2018-12-12T21:22:40.208Z,22.10
2018-12-12T21:25:07.723Z,24.43
2018-12-12T21:27:35.192Z,21.60
2018-12-12T21:30:02.748Z,25.70
2018-12-12T21:32:30.212Z,22.60
2018-12-12T21:34:57.672Z,25.63
2018-12-12T21:37:25.235Z,29.40
2018-12-12T21:39:52.725Z,23.30
2018-12-12T21:42:20.152Z,23.33
2018-12-12T21:44:47.623Z,25.13
2018-12-12T21:47:15.188Z,24.30
2018-12-12T21:49:42.664Z,26.93
2018-12-12T21:52:10.207Z,22.17
2018-12-12T21:54:37.652Z,28.07
2018-12-12T21:57:05.075Z,25.50
2018-12-12T21:59:32.568Z,24.93
2018-12-12T22:02:11.294Z,21.27
2018-12-12T22:04:38.768Z,28.77
2018-12-12T22:07:06.243Z,24.43
2018-12-12T22:09:33.733Z,25.60
2018-12-12T22:12:01.260Z,22.13
2018-12-12T22:14:28.785Z,24.27
2018-12-12T22:16:56.288Z,22.50
2018-12-12T22:19:23.848Z,24.40
2018-12-12T22:21:51.318Z,21.97
2018-12-12T22:24:18.747Z,22.47
2018-12-12T22:26:46.179Z,23.20
2018-12-12T22:29:13.698Z,24.67
2018-12-12T22:31:41.260Z,23.37
2018-12-12T22:34:08.698Z,23.87
2018-12-12T22:36:36.288Z,22.33
2018-12-12T22:39:06.200Z,25.90
2018-12-12T22:41:33.659Z,23.70
2018-12-12T22:44:01.126Z,23.77
2018-12-12T22:46:28.688Z,24.97
2018-12-12T22:48:56.153Z,25.63
2018-12-12T22:51:23.592Z,23.97
2018-12-12T22:53:51.081Z,30.13
2018-12-12T22:56:18.635Z,24.60
2018-12-12T22:58:46.167Z,25.47
2018-12-12T23:01:15.556Z,23.53
2018-12-12T23:03:43.068Z,24.50
2018-12-12T23:06:10.514Z,25.30
2018-12-12T23:08:37.988Z,23.03
2018-12-12T23:11:05.623Z,22.57
2018-12-12T23:13:33.120Z,22.83
2018-12-12T23:16:00.555Z,23.97
2018-12-12T23:18:28.043Z,28.87
2018-12-12T23:20:55.504Z,23.37
2018-12-12T23:23:22.960Z,25.03
2018-12-12T23:25:50.420Z,23.13
2018-12-12T23:28:17.852Z,26.00
2018-12-12T23:30:45.348Z,23.10
2018-12-12T23:33:12.809Z,20.03
2018-12-12T23:35:40.274Z,25.07
2018-12-12T23:38:07.700Z,23.17
2018-12-12T23:40:35.188Z,23.80
2018-12-12T23:43:02.659Z,21.97
2018-12-12T23:45:30.087Z,22.13
2018-12-12T23:47:57.528Z,23.17
2018-12-12T23:50:25.107Z,24.60
2018-12-12T23:52:52.519Z,21.60
2018-12-12T23:55:19.968Z,20.90
2018-12-12T23:57:47.418Z,24.50
